createdAt,value
2022-08-11T00:03:26.307Z,14.60
2022-08-11T00:09:10.985Z,14.50
2022-08-11T00:14:37.530Z,14.30
2022-08-11T00:20:15.785Z,14.00
2022-08-11T00:25:42.287Z,13.70
2022-08-11T00:31:07.595Z,13.70
2022-08-11T00:36:47.458Z,13.40
2022-08-11T00:42:54.537Z,13.30
2022-08-11T00:48:33.329Z,13.10
2022-08-11T00:54:33.254Z,13.00
2022-08-11T01:00:16.134Z,13.00
2022-08-11T01:06:03.028Z,12.80
2022-08-11T01:12:05.404Z,12.80
2022-08-11T01:18:05.484Z,12.70
2022-08-11T01:24:16.694Z,12.70
2022-08-11T01:29:54.025Z,12.70
2022-08-11T01:35:34.992Z,12.70
2022-08-11T01:41:26.720Z,12.70
2022-08-11T01:47:34.447Z,12.60
2022-08-11T01:53:05.510Z,12.20
2022-08-11T01:58:50.277Z,12.00
2022-08-11T02:04:21.155Z,11.90
2022-08-11T02:10:01.782Z,12.00
2022-08-11T02:15:36.490Z,12.00
2022-08-11T02:21:26.853Z,11.80
2022-08-11T02:27:06.806Z,11.90
2022-08-11T02:33:05.440Z,11.60
2022-08-11T02:38:45.337Z,11.60
2022-08-11T02:44:24.703Z,11.50
2022-08-11T02:50:07.222Z,11.50
2022-08-11T02:55:57.597Z,11.50
2022-08-11T03:01:32.364Z,11.50
2022-08-11T03:07:29.001Z,11.50
2022-08-11T03:13:41.781Z,11.50
2022-08-11T03:19:29.687Z,11.60
2022-08-11T03:25:08.827Z,11.60
2022-08-11T03:30:47.979Z,11.50
2022-08-11T03:37:17.347Z,11.50
2022-08-11T03:42:57.382Z,11.40
2022-08-11T03:48:46.300Z,11.60
2022-08-11T03:54:20.024Z,11.50
2022-08-11T04:00:01.663Z,11.60
2022-08-11T04:06:02.696Z,11.80
2022-08-11T04:11:46.096Z,11.80
2022-08-11T04:17:39.570Z,11.80
2022-08-11T04:24:36.902Z,12.00
2022-08-11T04:29:25.772Z,12.20
2022-08-11T04:35:23.131Z,12.40
2022-08-11T04:41:20.131Z,12.60
2022-08-11T04:47:05.049Z,12.80
2022-08-11T04:53:04.074Z,13.20
2022-08-11T04:59:08.683Z,13.60
2022-08-11T05:05:15.588Z,14.00
2022-08-11T05:11:06.337Z,14.50
2022-08-11T05:16:53.764Z,15.00
2022-08-11T05:22:38.104Z,15.30
2022-08-11T05:28:37.972Z,15.60
2022-08-11T05:34:26.672Z,15.80
2022-08-11T05:40:10.300Z,16.30
2022-08-11T05:46:02.898Z,16.80
2022-08-11T05:51:54.873Z,17.40
2022-08-11T05:57:48.650Z,18.20
2022-08-11T06:03:07.501Z,18.60
2022-08-11T06:08:36.266Z,18.90
2022-08-11T06:14:01.722Z,19.70
2022-08-11T06:19:39.829Z,19.60
2022-08-11T06:25:03.391Z,19.30
2022-08-11T06:30:42.176Z,19.10
2022-08-11T06:36:12.565Z,19.00
2022-08-11T06:41:51.965Z,19.10
2022-08-11T06:47:18.095Z,19.30
2022-08-11T06:52:42.406Z,19.30
2022-08-11T06:58:23.747Z,19.40
2022-08-11T07:03:51.040Z,19.60
2022-08-11T07:09:45.613Z,19.50
2022-08-11T07:16:11.498Z,19.70
2022-08-11T07:22:00.471Z,19.80
2022-08-11T07:27:46.680Z,20.10
2022-08-11T07:33:15.993Z,20.60
2022-08-11T07:38:56.293Z,20.80
2022-08-11T07:44:19.147Z,20.90
2022-08-11T07:50:04.520Z,20.90
2022-08-11T07:55:51.814Z,20.90
2022-08-11T08:01:38.915Z,21.40
2022-08-11T08:07:22.921Z,21.50
2022-08-11T08:13:03.749Z,21.70
2022-08-11T08:18:27.736Z,22.10
2022-08-11T08:23:56.244Z,21.90
2022-08-11T08:29:38.813Z,21.40
2022-08-11T08:35:02.702Z,21.30
2022-08-11T08:40:24.947Z,21.00
2022-08-11T08:45:47.426Z,20.90
2022-08-11T08:51:57.043Z,20.90
2022-08-11T08:57:14.108Z,20.90
2022-08-11T09:02:37.168Z,21.20
2022-08-11T09:07:59.411Z,23.20
2022-08-11T09:13:21.569Z,23.70
2022-08-11T09:18:44.649Z,22.50
2022-08-11T09:24:26.868Z,21.90
2022-08-11T09:29:49.897Z,22.50
2022-08-11T09:35:12.611Z,22.60
2022-08-11T09:40:36.479Z,22.40
2022-08-11T09:46:00.692Z,22.70
2022-08-11T09:51:23.744Z,22.10
2022-08-11T09:57:05.567Z,21.80
2022-08-11T10:02:30.158Z,21.90
2022-08-11T10:07:53.772Z,22.00
2022-08-11T10:14:30.609Z,22.60
2022-08-11T10:19:09.317Z,22.70
2022-08-11T10:24:51.107Z,22.40
2022-08-11T10:30:32.337Z,22.60
2022-08-11T10:35:54.824Z,22.90
2022-08-11T10:41:35.667Z,23.20
2022-08-11T10:47:16.276Z,23.40
2022-08-11T10:52:59.124Z,23.50
2022-08-11T10:58:41.500Z,23.10
2022-08-11T11:04:18.048Z,23.30
2022-08-11T11:09:46.517Z,24.40
2022-08-11T11:15:28.853Z,25.00
2022-08-11T11:20:56.633Z,25.30
2022-08-11T11:26:34.260Z,25.50
2022-08-11T11:32:30.320Z,25.40
2022-08-11T11:37:56.166Z,24.10
2022-08-11T11:43:26.884Z,23.30
2022-08-11T11:48:49.307Z,23.10
2022-08-11T11:54:14.079Z,23.40
2022-08-11T11:59:54.694Z,23.10
2022-08-11T12:05:17.489Z,21.50
2022-08-11T12:11:12.292Z,19.20
2022-08-11T12:16:37.062Z,18.90
2022-08-11T12:22:18.855Z,18.80
2022-08-11T12:27:41.160Z,19.70
2022-08-11T12:33:03.978Z,21.00
2022-08-11T12:38:29.659Z,21.60
2022-08-11T12:44:11.171Z,22.60
2022-08-11T12:49:56.600Z,23.30
2022-08-11T12:55:42.100Z,23.60
2022-08-11T13:01:42.878Z,22.90
2022-08-11T13:07:05.415Z,22.60
2022-08-11T13:12:47.581Z,22.30
2022-08-11T13:18:11.952Z,20.60
2022-08-11T13:23:35.713Z,19.50
2022-08-11T13:28:58.083Z,19.20
2022-08-11T13:34:22.868Z,19.00
2022-08-11T13:39:47.345Z,18.80
2022-08-11T13:45:10.563Z,18.70
2022-08-11T13:50:56.193Z,18.60
2022-08-11T13:56:19.263Z,18.50
2022-08-11T14:02:19.681Z,18.50
2022-08-11T14:07:35.549Z,18.60
2022-08-11T14:13:20.302Z,18.80
2022-08-11T14:18:47.924Z,18.90
2022-08-11T14:24:11.664Z,19.10
2022-08-11T14:29:46.313Z,19.20
2022-08-11T14:35:11.688Z,19.50
2022-08-11T14:40:52.509Z,19.90
2022-08-11T14:51:57.748Z,20.60
2022-08-11T14:57:20.996Z,20.30
2022-08-11T15:03:11.954Z,20.60
2022-08-11T15:08:56.673Z,20.50
2022-08-11T15:14:39.812Z,20.40
2022-08-11T15:20:29.293Z,20.20
2022-08-11T15:25:56.539Z,20.00
2022-08-11T15:31:38.984Z,20.20
2022-08-11T15:37:25.925Z,20.60
2022-08-11T15:43:30.808Z,20.60
2022-08-11T15:49:09.416Z,20.40
2022-08-11T15:54:35.718Z,20.30
2022-08-11T16:00:18.584Z,20.30
2022-08-11T16:05:52.938Z,20.30
2022-08-11T16:11:16.318Z,20.30
2022-08-11T16:16:39.932Z,20.40
2022-08-11T16:22:07.325Z,20.20
2022-08-11T16:27:34.050Z,20.20
2022-08-11T16:32:58.109Z,20.10
2022-08-11T16:38:35.914Z,20.10
2022-08-11T16:44:16.715Z,20.40
2022-08-11T16:49:44.259Z,20.60
2022-08-11T16:55:41.871Z,20.70
2022-08-11T17:01:00.348Z,20.70
2022-08-11T17:06:42.725Z,18.70
2022-08-11T17:12:26.699Z,17.70
2022-08-11T17:17:49.103Z,17.80
2022-08-11T17:23:30.309Z,17.40
2022-08-11T17:28:59.254Z,17.30
2022-08-11T17:34:40.158Z,17.20
2022-08-11T17:40:06.821Z,17.30
2022-08-11T17:45:48.499Z,17.30
2022-08-11T17:51:34.714Z,17.30
2022-08-11T17:57:20.107Z,17.20
2022-08-11T18:03:03.495Z,16.50
2022-08-11T18:08:45.682Z,16.50
2022-08-11T18:14:29.038Z,16.30
2022-08-11T18:20:10.276Z,16.20
2022-08-11T18:25:59.275Z,16.00
2022-08-11T18:31:41.262Z,16.00
2022-08-11T18:37:28.578Z,16.00
2022-08-11T18:43:13.735Z,15.80
2022-08-11T18:48:57.627Z,15.70
2022-08-11T18:54:40.483Z,15.60
2022-08-11T19:00:22.725Z,15.60
2022-08-11T19:06:38.875Z,15.60
2022-08-11T19:12:08.125Z,15.60
2022-08-11T19:17:51.353Z,15.40
2022-08-11T19:23:36.043Z,15.20
2022-08-11T19:30:04.883Z,15.20
2022-08-11T19:35:20.040Z,15.00
2022-08-11T19:41:01.850Z,14.80
2022-08-11T19:46:44.489Z,14.70
2022-08-11T19:52:26.169Z,14.60
2022-08-11T19:58:07.967Z,14.40
2022-08-11T20:03:48.720Z,14.30
2022-08-11T20:10:05.106Z,14.20
2022-08-11T20:15:34.858Z,13.90
2022-08-11T20:21:26.289Z,13.90
2022-08-11T20:27:24.190Z,13.90
2022-08-11T20:33:06.850Z,13.90
2022-08-11T20:38:49.803Z,13.70
2022-08-11T20:44:30.668Z,13.70
2022-08-11T20:50:19.381Z,13.60
2022-08-11T20:56:06.724Z,13.40
2022-08-11T21:01:52.125Z,13.30
2022-08-11T21:07:36.036Z,13.10
2022-08-11T21:13:26.849Z,13.20
2022-08-11T21:19:12.634Z,13.00
2022-08-11T21:24:54.845Z,13.00
2022-08-11T21:30:35.594Z,13.00
2022-08-11T21:36:18.176Z,12.90
2022-08-11T21:41:59.374Z,12.80
2022-08-11T21:47:43.188Z,12.80
2022-08-11T21:53:26.080Z,12.70
2022-08-11T21:59:08.317Z,12.60
2022-08-11T22:04:49.998Z,12.60
2022-08-11T22:10:42.187Z,12.40
2022-08-11T22:16:24.343Z,12.40
2022-08-11T22:22:08.952Z,12.40
2022-08-11T22:27:53.364Z,12.30
2022-08-11T22:33:35.528Z,12.20
2022-08-11T22:39:19.935Z,12.20
2022-08-11T22:45:00.575Z,12.10
2022-08-11T22:50:41.631Z,12.00
2022-08-11T22:56:22.643Z,12.00
2022-08-11T23:02:14.360Z,11.90
2022-08-11T23:07:56.300Z,11.90
2022-08-11T23:13:38.668Z,11.80
2022-08-11T23:20:10.529Z,11.70
2022-08-11T23:25:20.811Z,11.60
2022-08-11T23:31:01.947Z,11.60
2022-08-11T23:36:47.601Z,11.50
2022-08-11T23:42:29.725Z,11.50
2022-08-11T23:48:10.876Z,11.50
2022-08-11T23:53:52.490Z,11.50
2022-08-11T23:59:34.923Z,11.50
